Randleman, North Carolina
Current Conditions -  °F | °C
As of 10:15 AM on Friday 19 Dec 2014 (Local Time) from KHBI Reporting Station
Clear Clear  
Wind Chill: 41°   Ceiling: Unl
Heat Index: 46°   Visibility: 10mi
Dew Point: 23°   Wind: 8mph
Humidity: 41%   Direction: 330°NNW
Pressure: 30.21"   Gusts: NA
Location:  35.82°N, 79.8°W
Report Text: KHBI 191515Z AUTO 33007KT 10SM CLR 08/M05 A3021 RMK AO2 T00751050
Loading
Personal Weather Stations






























Interactive Weather Map New forecast layout! Learn more

10-Day Weather Forecast

Advertisements
Track Severe Weather on mobile